Airfield :
LOGIN :

Register | Disclaimer

   EN    FR    IT 

 










Legend :    VFR   Marginal VFR   IFR   Intensive IFR   Very Intensive IFR
Visi :
Ceiling :
>= 8 km
>= 3000ft
5 to 8 km
1000 to 3000 ft
1500m to 5 km
500 to 1000 ft
800 to 1500m
200 to 500 ft
< 800m
< 200 ft
Symbols :   Thunderstorms  Fog  Heavy snow  Heavy precipitations  Wind > 20 kt
SIGMETs :     Misc.  Thunderstorms  Icing  Turbulence  Mountain Waves  Volcanic Ashes






- Airport Elevation : 659 ft
- IATA code : LYN


LFLY - Lyon Bron

CURRENT METAR :
  • 250330Z AUTO 21004KT 180V260 CAVOK 03/00 Q1004 NOSIG

EXPIRED METARs :
  • 250300Z AUTO 23005KT 190V250 9999 FEW046 04/00 Q1004 NOSIG
  • 250230Z AUTO 22009KT 9999 FEW047 04/01 Q1004 NOSIG
  • 250200Z AUTO 20009KT 170V260 9999 -RA FEW018 SCT041 BKN058 04/01 Q1004 NOSIG
  • 250130Z AUTO 18009KT 9999 BKN039 BKN100 04/01 Q1003 TEMPO 27010KT
  • 250100Z AUTO 18009KT 9999 BKN040 BKN046 04/01 Q1003 TEMPO 27010KT

TAF TAF LFLY
Valid from the 25 at 00:00 until the 26 at 00:00 UTC


242300Z 2500/2524 20010KT 9999 BKN030
TEMPO 2502/2512 27010KT
BECMG 2510/2513 32010KT
PROB40
TEMPO 2511/2516 33015G25KT 3000 SHSNRA BKN025TCU
PROB30
TEMPO 2511/2516 SHGS
TEMPO 2521/2524 BKN012
PROB30
TEMPO 2521/2524 -SN
ATIS : +33 4 72 15 87 96



MET'MAP, your aeronautical weather chart ! - Copyright ORBIFLY December 2007 - Disclaimer

ORBIFLY MET'MAP TEAM :

Programming & Development : Alexandra Zaïnal
Concept & original design : Baudouin d'Aumeries
Assistance for programming : Marc-Olivier Méhu
Technical & hardware support : Manuel Goepfert

Contact : metmap@orbifly.com




SOURCES & CREDITS :

   NOAA